createdAt,value
2023-04-18T00:00:02.143Z,11.68
2023-04-18T00:02:29.537Z,9.77
2023-04-18T00:04:56.437Z,11.68
2023-04-18T00:07:22.974Z,10.63
2023-04-18T00:09:49.371Z,10.82
2023-04-18T00:12:15.851Z,11.02
2023-04-18T00:14:42.272Z,9.70
2023-04-18T00:17:08.798Z,9.65
2023-04-18T00:19:37.206Z,9.15
2023-04-18T00:22:03.624Z,10.30
2023-04-18T00:24:30.124Z,11.45
2023-04-18T00:26:57.147Z,9.55
2023-04-18T00:29:23.645Z,10.85
2023-04-18T00:31:50.123Z,11.52
2023-04-18T00:34:16.534Z,10.90
2023-04-18T00:36:43.010Z,9.13
2023-04-18T00:39:09.498Z,10.90
2023-04-18T00:41:35.887Z,9.75
2023-04-18T00:44:02.314Z,9.57
2023-04-18T00:46:28.801Z,10.68
2023-04-18T00:48:55.620Z,11.07
2023-04-18T00:51:22.078Z,11.35
2023-04-18T00:53:48.797Z,9.95
2023-04-18T00:56:15.565Z,10.75
2023-04-18T00:58:41.989Z,11.50
2023-04-18T01:01:09.401Z,11.13
2023-04-18T01:03:37.415Z,10.98
2023-04-18T01:06:04.166Z,11.13
2023-04-18T01:08:30.833Z,9.63
2023-04-18T01:10:57.348Z,9.43
2023-04-18T01:13:23.861Z,11.93
2023-04-18T01:15:53.088Z,10.15
2023-04-18T01:18:20.822Z,11.15
2023-04-18T01:20:49.460Z,9.80
2023-04-18T01:23:17.303Z,10.05
2023-04-18T01:25:45.179Z,9.82
2023-04-18T01:28:14.866Z,10.73
2023-04-18T01:30:41.488Z,10.02
2023-04-18T01:33:09.064Z,12.93
2023-04-18T01:35:35.666Z,11.32
2023-04-18T01:38:02.291Z,12.40
2023-04-18T01:40:30.385Z,11.88
2023-04-18T01:42:57.936Z,10.40
2023-04-18T01:45:24.481Z,10.05
2023-04-18T01:47:51.153Z,12.18
2023-04-18T01:50:19.209Z,11.85
2023-04-18T01:52:45.883Z,10.75
2023-04-18T01:55:12.452Z,10.85
2023-04-18T01:57:38.981Z,10.90
2023-04-18T02:00:06.377Z,11.77
2023-04-18T02:02:33.173Z,11.55
2023-04-18T02:05:01.512Z,10.95
2023-04-18T02:07:27.926Z,10.85
2023-04-18T02:09:54.560Z,11.65
2023-04-18T02:12:23.382Z,11.13
2023-04-18T02:14:55.806Z,10.38
2023-04-18T02:17:23.584Z,12.25
2023-04-18T02:19:53.752Z,11.18
2023-04-18T02:22:20.241Z,11.98
2023-04-18T02:24:46.974Z,11.65
2023-04-18T02:27:13.526Z,10.80
2023-04-18T02:29:40.259Z,10.52
2023-04-18T02:32:09.060Z,12.07
2023-04-18T02:34:36.788Z,10.32
2023-04-18T02:37:03.657Z,11.45
2023-04-18T02:39:30.290Z,12.23
2023-04-18T02:41:56.825Z,11.43
2023-04-18T02:44:23.286Z,10.93
2023-04-18T02:46:49.685Z,11.00
2023-04-18T02:49:16.103Z,11.02
2023-04-18T02:51:42.635Z,12.00
2023-04-18T02:54:10.717Z,12.85
2023-04-18T02:56:40.209Z,13.52
2023-04-18T02:59:07.097Z,11.63
2023-04-18T03:01:33.532Z,11.48
2023-04-18T03:04:00.160Z,11.82
2023-04-18T03:06:27.296Z,12.02
2023-04-18T03:08:56.022Z,10.48
2023-04-18T03:11:22.513Z,12.88
2023-04-18T03:13:49.020Z,12.63
2023-04-18T03:16:15.831Z,11.45
2023-04-18T03:18:42.396Z,12.43
2023-04-18T03:21:08.827Z,12.45
2023-04-18T03:23:35.272Z,12.85
2023-04-18T03:26:01.727Z,11.40
2023-04-18T03:28:28.174Z,11.68
2023-04-18T03:30:54.793Z,11.40
2023-04-18T03:33:22.453Z,11.43
2023-04-18T03:35:48.959Z,10.80
2023-04-18T03:38:15.445Z,13.30
2023-04-18T03:40:44.301Z,13.85
2023-04-18T03:43:11.020Z,13.00
2023-04-18T03:45:37.893Z,11.90
2023-04-18T03:48:06.164Z,13.05
2023-04-18T03:50:33.093Z,12.93
2023-04-18T03:53:01.919Z,12.98
2023-04-18T03:55:28.357Z,11.05
2023-04-18T03:57:55.071Z,14.25
2023-04-18T04:00:21.555Z,13.65
2023-04-18T04:02:48.119Z,11.27
2023-04-18T04:05:14.782Z,13.57
2023-04-18T04:07:41.227Z,12.10
2023-04-18T04:10:08.058Z,13.23
2023-04-18T04:12:34.973Z,11.80
2023-04-18T04:15:01.414Z,11.65
2023-04-18T04:17:28.897Z,11.23
2023-04-18T04:19:55.395Z,12.52
2023-04-18T04:22:22.042Z,13.32
2023-04-18T04:24:48.639Z,12.43
2023-04-18T04:27:15.135Z,12.15
2023-04-18T04:29:44.058Z,13.00
2023-04-18T04:32:10.835Z,12.20
2023-04-18T04:34:37.525Z,13.30
2023-04-18T04:37:03.957Z,12.57
2023-04-18T04:39:30.800Z,13.52
2023-04-18T04:41:57.627Z,12.85
2023-04-18T04:44:26.112Z,12.20
2023-04-18T04:46:54.549Z,13.07
2023-04-18T04:49:21.102Z,13.48
2023-04-18T04:51:47.641Z,13.98
2023-04-18T04:54:14.446Z,14.68
2023-04-18T04:56:41.072Z,13.73
2023-04-18T04:59:07.598Z,13.23
2023-04-18T05:01:34.126Z,13.38
2023-04-18T05:04:00.720Z,12.90
2023-04-18T05:06:27.498Z,13.75
2023-04-18T05:08:55.695Z,11.27
2023-04-18T05:11:22.073Z,14.07
2023-04-18T05:13:48.542Z,13.05
2023-04-18T05:16:15.068Z,12.88
2023-04-18T05:18:42.037Z,13.05
2023-04-18T05:21:08.417Z,13.38
2023-04-18T05:23:37.013Z,13.30
2023-04-18T05:26:04.263Z,12.63
2023-04-18T05:28:31.107Z,15.48
2023-04-18T05:31:01.266Z,14.20
2023-04-18T05:33:31.604Z,13.48
2023-04-18T05:35:58.502Z,13.98
2023-04-18T05:38:25.779Z,13.23
2023-04-18T05:40:52.497Z,13.25
2023-04-18T05:43:19.444Z,14.77
2023-04-18T05:45:46.269Z,12.77
2023-04-18T05:48:13.550Z,13.80
2023-04-18T05:50:40.129Z,12.95
2023-04-18T05:53:06.636Z,13.35
2023-04-18T05:55:34.641Z,14.07
2023-04-18T05:58:01.100Z,13.23
2023-04-18T06:00:28.215Z,13.30
2023-04-18T06:02:57.058Z,11.48
2023-04-18T06:05:28.292Z,11.50
2023-04-18T06:07:55.437Z,13.77
2023-04-18T06:10:21.933Z,12.95
2023-04-18T06:12:48.440Z,13.15
2023-04-18T06:15:14.867Z,12.80
2023-04-18T06:17:41.461Z,11.85
2023-04-18T06:20:09.252Z,10.45
2023-04-18T06:22:35.770Z,12.27
2023-04-18T06:25:02.243Z,11.77
2023-04-18T06:27:31.684Z,11.20
2023-04-18T06:29:58.980Z,10.63
2023-04-18T06:32:25.610Z,10.60
2023-04-18T06:34:53.002Z,10.30
2023-04-18T06:37:19.662Z,10.20
2023-04-18T06:39:46.094Z,11.98
2023-04-18T06:42:12.510Z,11.55
2023-04-18T06:44:39.082Z,10.38
2023-04-18T06:47:07.282Z,11.32
2023-04-18T06:49:34.476Z,11.25
2023-04-18T06:52:00.892Z,10.98
2023-04-18T06:54:27.344Z,10.23
2023-04-18T06:56:53.992Z,11.35
2023-04-18T06:59:21.454Z,10.90
2023-04-18T07:01:47.908Z,11.27
2023-04-18T07:04:15.066Z,11.25
2023-04-18T07:06:42.319Z,11.20
2023-04-18T07:09:08.857Z,10.25
2023-04-18T07:11:35.525Z,11.02
2023-04-18T07:14:01.957Z,12.05
2023-04-18T07:16:29.677Z,11.70
2023-04-18T07:18:56.315Z,10.20
2023-04-18T07:21:23.889Z,12.48
2023-04-18T07:23:50.427Z,13.38
2023-04-18T07:26:16.821Z,14.10
2023-04-18T07:28:43.270Z,12.18
2023-04-18T07:31:11.533Z,11.77
2023-04-18T07:33:38.580Z,10.55
2023-04-18T07:36:05.482Z,11.23
2023-04-18T07:38:33.682Z,11.50
2023-04-18T07:41:01.588Z,13.10
2023-04-18T07:43:28.076Z,12.73
2023-04-18T07:45:54.649Z,11.93
2023-04-18T07:48:22.541Z,12.80
2023-04-18T07:50:49.407Z,11.00
2023-04-18T07:53:18.907Z,11.27
2023-04-18T07:55:45.893Z,11.75
2023-04-18T07:58:12.747Z,9.50
2023-04-18T08:00:39.752Z,9.95
2023-04-18T08:03:12.885Z,11.05
2023-04-18T08:05:40.184Z,11.82
2023-04-18T08:08:08.175Z,10.57
2023-04-18T08:10:34.917Z,12.23
2023-04-18T08:13:02.199Z,11.40
2023-04-18T08:15:29.055Z,10.40
2023-04-18T08:17:56.095Z,9.88
2023-04-18T08:20:23.207Z,10.07
2023-04-18T08:23:04.746Z,12.10
2023-04-18T08:25:33.411Z,11.73
2023-04-18T08:28:00.016Z,11.60
2023-04-18T08:30:26.517Z,10.63
2023-04-18T08:32:53.145Z,10.90
2023-04-18T08:35:19.772Z,11.50
2023-04-18T08:37:46.329Z,10.55
2023-04-18T08:40:12.812Z,11.73
2023-04-18T08:42:40.616Z,12.35
2023-04-18T08:45:07.662Z,11.35
2023-04-18T08:47:35.598Z,11.50
2023-04-18T08:50:02.115Z,12.18
2023-04-18T08:52:30.716Z,11.35
2023-04-18T08:54:57.471Z,12.98
2023-04-18T08:57:27.380Z,13.05
2023-04-18T08:59:54.370Z,12.05
2023-04-18T09:02:24.318Z,12.77
2023-04-18T09:04:55.757Z,11.85
2023-04-18T09:07:29.152Z,12.50
2023-04-18T09:09:57.655Z,12.18
2023-04-18T09:12:26.155Z,11.82
2023-04-18T09:14:57.524Z,12.32
2023-04-18T09:17:53.060Z,11.98
2023-04-18T09:20:44.573Z,11.52
2023-04-18T09:23:14.872Z,9.95
2023-04-18T09:25:44.154Z,11.80
2023-04-18T09:28:31.824Z,11.98
2023-04-18T09:31:13.313Z,11.88
2023-04-18T09:33:43.240Z,10.48
2023-04-18T09:36:22.793Z,11.57
2023-04-18T09:38:52.571Z,11.68
2023-04-18T09:41:22.441Z,12.82
2023-04-18T09:43:49.290Z,12.68
2023-04-18T09:46:17.498Z,10.60
2023-04-18T09:48:44.096Z,10.73
2023-04-18T09:51:18.036Z,12.90
2023-04-18T09:53:47.282Z,10.05
2023-04-18T09:56:26.153Z,9.80
2023-04-18T09:58:56.953Z,12.63
2023-04-18T10:01:27.956Z,11.38
2023-04-18T10:03:55.413Z,11.30
2023-04-18T10:06:22.266Z,12.50
2023-04-18T10:08:49.329Z,10.55
2023-04-18T10:11:15.820Z,10.63
2023-04-18T10:13:49.015Z,10.65
2023-04-18T10:16:16.858Z,9.38
2023-04-18T10:18:43.363Z,10.73
2023-04-18T10:21:10.025Z,10.48
2023-04-18T10:23:37.880Z,11.23
2023-04-18T10:26:08.817Z,12.00
2023-04-18T10:28:56.524Z,11.13
2023-04-18T10:31:25.895Z,13.57
2023-04-18T10:34:18.270Z,12.52
2023-04-18T10:37:05.180Z,11.60
2023-04-18T10:39:47.510Z,11.32
2023-04-18T10:42:14.018Z,13.38
2023-04-18T10:44:40.578Z,11.75
2023-04-18T10:47:10.029Z,13.45
2023-04-18T10:49:38.970Z,12.75
2023-04-18T10:52:06.055Z,11.88
2023-04-18T10:54:46.930Z,12.75
2023-04-18T10:57:13.862Z,13.70
2023-04-18T10:59:45.477Z,13.02
2023-04-18T11:02:25.180Z,13.80
2023-04-18T11:04:54.450Z,11.35
2023-04-18T11:07:33.091Z,11.48
2023-04-18T11:10:01.987Z,12.30
2023-04-18T11:12:33.200Z,14.73
2023-04-18T11:15:02.651Z,12.02
2023-04-18T11:17:32.714Z,12.68
2023-04-18T11:20:01.585Z,11.50
2023-04-18T11:22:28.223Z,13.90
2023-04-18T11:24:59.095Z,15.10
2023-04-18T11:27:26.859Z,13.60
2023-04-18T11:29:54.684Z,15.15
2023-04-18T11:32:24.752Z,15.10
2023-04-18T11:34:53.390Z,13.93
2023-04-18T11:37:20.365Z,13.55
2023-04-18T11:39:46.912Z,12.95
2023-04-18T11:42:13.443Z,13.43
2023-04-18T11:44:40.089Z,13.43
2023-04-18T11:47:22.350Z,16.88
2023-04-18T11:49:56.466Z,15.88
2023-04-18T11:52:25.955Z,15.52
2023-04-18T11:54:52.487Z,14.57
2023-04-18T11:57:23.262Z,14.73
2023-04-18T11:59:56.629Z,17.48
2023-04-18T12:02:38.479Z,15.57
2023-04-18T12:05:05.813Z,14.57
2023-04-18T12:07:38.339Z,15.98
2023-04-18T12:10:09.348Z,15.15
2023-04-18T12:12:36.364Z,16.20
2023-04-18T12:15:16.250Z,15.43
2023-04-18T12:17:48.543Z,13.57
2023-04-18T12:20:16.111Z,14.98
2023-04-18T12:22:50.163Z,17.40
2023-04-18T12:25:27.120Z,14.50
2023-04-18T12:28:04.488Z,14.27
2023-04-18T12:30:37.376Z,14.38
2023-04-18T12:33:04.884Z,13.38
2023-04-18T12:35:32.076Z,15.75
2023-04-18T12:38:02.794Z,14.43
2023-04-18T12:40:30.295Z,15.07
2023-04-18T12:42:56.776Z,15.40
2023-04-18T12:45:26.417Z,14.23
2023-04-18T12:47:53.509Z,14.38
2023-04-18T12:50:25.312Z,14.02
2023-04-18T12:52:53.108Z,14.88
2023-04-18T12:55:20.324Z,12.80
2023-04-18T12:57:46.979Z,14.73
2023-04-18T13:00:13.933Z,14.65
2023-04-18T13:02:44.459Z,15.45
2023-04-18T13:05:13.406Z,13.93
2023-04-18T13:07:40.773Z,14.43
2023-04-18T13:10:11.895Z,15.90
2023-04-18T13:12:39.695Z,16.08
2023-04-18T13:15:08.473Z,15.45
2023-04-18T13:17:36.769Z,15.40
2023-04-18T13:20:12.294Z,15.88
2023-04-18T13:22:39.906Z,14.85
2023-04-18T13:25:08.221Z,14.02
2023-04-18T13:27:34.955Z,13.43
2023-04-18T13:30:02.031Z,14.07
2023-04-18T13:32:28.553Z,14.85
2023-04-18T13:34:56.070Z,14.55
2023-04-18T13:37:22.629Z,13.98
2023-04-18T13:39:49.323Z,14.55
2023-04-18T13:42:16.383Z,14.90
2023-04-18T13:44:42.853Z,14.70
2023-04-18T13:47:09.304Z,14.32
2023-04-18T13:49:36.395Z,16.20
2023-04-18T13:52:03.705Z,13.05
2023-04-18T13:54:34.309Z,14.30
2023-04-18T13:57:04.184Z,15.30
2023-04-18T13:59:31.680Z,15.20
2023-04-18T14:01:58.626Z,13.60
2023-04-18T14:04:25.612Z,12.93
2023-04-18T14:06:52.372Z,13.63
2023-04-18T14:09:18.900Z,13.80
2023-04-18T14:11:45.722Z,13.98
2023-04-18T14:14:12.256Z,14.50
2023-04-18T14:16:38.916Z,14.88
2023-04-18T14:19:05.322Z,13.90
2023-04-18T14:21:31.729Z,12.00
2023-04-18T14:24:00.750Z,11.52
2023-04-18T14:26:27.521Z,14.20
2023-04-18T14:28:54.497Z,13.95
2023-04-18T14:31:21.437Z,13.07
2023-04-18T14:33:47.967Z,12.60
2023-04-18T14:36:16.989Z,13.15
2023-04-18T14:38:47.136Z,12.30
2023-04-18T14:41:13.587Z,12.90
2023-04-18T14:43:40.375Z,11.55
2023-04-18T14:46:16.436Z,12.68
2023-04-18T14:48:45.621Z,12.10
2023-04-18T14:51:12.312Z,12.52
2023-04-18T14:53:39.078Z,14.05
2023-04-18T14:56:05.809Z,13.32
2023-04-18T14:58:32.284Z,12.40
2023-04-18T15:00:58.882Z,11.40
2023-04-18T15:03:25.460Z,12.23
2023-04-18T15:05:53.191Z,11.55
